Altama, Georgia
Current Conditions -  °F | °C
As of 6:15 AM on Thursday 25 Dec 2014 (Local Time) from KBQK Reporting Station
Overcast Overcast  
Wind Chill: 12°   Ceiling: 10000
Heat Index: 12°   Visibility: 10mi
Dew Point:   Wind: 5mph
Humidity: 72%   Direction: 280°W
Pressure: 30.07"   Gusts: NA
Location:  31.1773°N, 81.4991°W
Report Text: KBQK 251115Z AUTO 28004KT 10SM OVC100 12/07 A3007 RMK AO1
Loading
Personal Weather Stations






























Interactive Weather Map New forecast layout! Learn more

10-Day Weather Forecast

Advertisements
Track Severe Weather on mobile